createdAt,value
2023-05-09T00:01:10.719Z,99.90
2023-05-09T00:11:12.698Z,99.90
2023-05-09T00:21:14.700Z,99.90
2023-05-09T00:31:16.667Z,99.90
2023-05-09T00:41:18.673Z,99.90
2023-05-09T00:51:21.363Z,99.90
2023-05-09T01:01:23.917Z,99.90
2023-05-09T01:11:33.271Z,99.90
2023-05-09T01:21:35.716Z,99.90
2023-05-09T01:31:42.007Z,99.90
2023-05-09T01:41:44.287Z,99.90
2023-05-09T01:51:48.297Z,99.90
2023-05-09T02:01:50.461Z,99.90
2023-05-09T02:11:52.420Z,99.90
2023-05-09T02:21:54.818Z,99.90
2023-05-09T02:32:00.006Z,99.90
2023-05-09T02:42:12.135Z,99.90
2023-05-09T02:52:14.291Z,99.90
2023-05-09T03:02:16.464Z,99.90
2023-05-09T03:12:18.532Z,99.90
2023-05-09T03:22:20.528Z,99.90
2023-05-09T03:32:30.216Z,99.90
2023-05-09T03:42:32.343Z,99.90
2023-05-09T03:52:36.971Z,99.90
2023-05-09T04:02:40.533Z,99.90
2023-05-09T04:12:43.767Z,99.90
2023-05-09T04:22:47.011Z,99.90
2023-05-09T04:32:50.899Z,99.90
2023-05-09T04:42:53.274Z,99.90
2023-05-09T04:53:02.090Z,99.90
2023-05-09T05:03:04.767Z,99.90
2023-05-09T05:13:07.119Z,99.90
2023-05-09T05:23:10.889Z,99.90
2023-05-09T05:33:13.057Z,99.20
2023-05-09T05:43:15.337Z,99.90
2023-05-09T05:53:17.819Z,99.40
2023-05-09T06:03:21.171Z,99.90
2023-05-09T06:13:31.566Z,97.90
2023-05-09T06:23:42.616Z,95.30
2023-05-09T06:33:52.911Z,94.80
2023-05-09T06:43:54.707Z,94.60
2023-05-09T06:53:56.594Z,91.10
2023-05-09T07:03:58.541Z,90.50
2023-05-09T07:14:00.400Z,84.60
2023-05-09T07:24:02.456Z,78.70
2023-05-09T07:34:04.868Z,73.20
2023-05-09T07:44:06.711Z,67.80
2023-05-09T07:54:08.627Z,66.00
2023-05-09T08:04:10.685Z,62.50
2023-05-09T08:14:13.186Z,63.70
2023-05-09T08:24:16.855Z,65.00
2023-05-09T08:34:19.060Z,61.20
2023-05-09T08:44:21.115Z,61.80
2023-05-09T08:54:24.349Z,60.70
2023-05-09T09:04:26.250Z,63.70
2023-05-09T09:14:31.690Z,60.30
2023-05-09T09:24:35.145Z,60.30
2023-05-09T09:34:37.006Z,59.30
2023-05-09T09:44:38.874Z,60.70
2023-05-09T09:54:40.917Z,60.60
2023-05-09T10:04:43.970Z,59.00
2023-05-09T10:14:47.551Z,58.70
2023-05-09T10:25:20.174Z,52.60
2023-05-09T10:35:27.763Z,56.20
2023-05-09T10:45:29.826Z,56.10
2023-05-09T10:55:39.876Z,56.50
2023-05-09T11:05:42.209Z,56.70
2023-05-09T11:16:10.844Z,55.30
2023-05-09T11:26:15.606Z,55.70
2023-05-09T11:36:21.377Z,55.10
2023-05-09T11:46:23.443Z,53.20
2023-05-09T11:56:25.449Z,53.20
2023-05-09T12:06:27.444Z,51.70
2023-05-09T12:16:29.432Z,52.90
2023-05-09T12:26:31.976Z,52.70
2023-05-09T12:36:35.291Z,51.80
2023-05-09T12:46:37.747Z,51.20
2023-05-09T12:56:39.678Z,51.70
2023-05-09T13:06:52.981Z,52.30
2023-05-09T13:16:54.974Z,50.50
2023-05-09T13:26:56.930Z,50.80
2023-05-09T13:36:58.891Z,49.90
2023-05-09T13:47:00.868Z,50.20
2023-05-09T13:57:05.965Z,51.40
2023-05-09T14:07:07.887Z,50.10
2023-05-09T14:17:09.877Z,50.30
2023-05-09T14:27:11.782Z,49.10
2023-05-09T14:37:14.095Z,49.90
2023-05-09T14:47:16.245Z,49.80
2023-05-09T14:57:18.126Z,49.60
2023-05-09T15:07:20.125Z,50.30
2023-05-09T15:17:22.019Z,50.30
2023-05-09T15:27:23.885Z,50.40
2023-05-09T15:37:25.708Z,50.50
2023-05-09T15:47:27.835Z,50.00
2023-05-09T15:57:29.788Z,50.30
2023-05-09T16:07:33.387Z,49.90
2023-05-09T16:17:37.721Z,50.20
2023-05-09T16:27:39.664Z,49.90
2023-05-09T16:37:41.930Z,50.20
2023-05-09T16:47:43.806Z,50.00
2023-05-09T16:57:45.770Z,50.20
2023-05-09T17:07:47.775Z,50.10
2023-05-09T17:17:49.909Z,50.40
2023-05-09T17:27:51.917Z,50.60
2023-05-09T17:37:54.046Z,50.90
2023-05-09T17:47:56.267Z,51.30
2023-05-09T17:57:58.123Z,51.70
2023-05-09T18:08:00.067Z,52.20
2023-05-09T18:18:02.027Z,52.30
2023-05-09T18:28:04.070Z,52.50
2023-05-09T18:38:05.915Z,52.90
2023-05-09T18:48:08.261Z,53.60
2023-05-09T18:58:10.233Z,53.80
2023-05-09T19:08:12.101Z,54.00
2023-05-09T19:18:14.058Z,54.00
2023-05-09T19:28:15.965Z,54.10
2023-05-09T19:38:17.861Z,54.30
2023-05-09T19:48:19.723Z,54.70
2023-05-09T19:58:21.728Z,55.30
2023-05-09T20:18:42.899Z,56.50
2023-05-09T20:28:44.732Z,57.80
2023-05-09T20:38:46.618Z,58.10
2023-05-09T20:48:48.529Z,59.40
2023-05-09T20:58:50.457Z,60.90
2023-05-09T21:08:52.407Z,62.90
2023-05-09T21:18:54.300Z,65.90
2023-05-09T21:28:56.462Z,69.90
2023-05-09T21:38:58.294Z,73.20
2023-05-09T21:49:01.152Z,77.40
2023-05-09T21:59:03.076Z,81.90
2023-05-09T22:09:04.841Z,86.80
2023-05-09T22:19:06.910Z,90.60
2023-05-09T22:29:09.036Z,92.70
2023-05-09T22:39:10.979Z,94.30
2023-05-09T22:49:12.875Z,95.40
2023-05-09T22:59:14.768Z,96.50
2023-05-09T23:09:16.651Z,98.00
2023-05-09T23:19:18.471Z,98.70
2023-05-09T23:29:20.413Z,99.40
2023-05-09T23:39:22.237Z,99.90
2023-05-09T23:49:24.251Z,99.90
2023-05-09T23:59:26.213Z,99.90
